Time;durP1;ratioP1;P1;durP2;ratioP2;P2;SDS_P1;SDS_P2;PMS_P1;PMS_P2;Temp;Humidity;BMP_temperature;BMP_pressure;BME280_temperature;BME280_humidity;BME280_pressure;Samples;Min_cycle;Max_cycle;Signal;HPM_P1;HPM_P2
2024/02/23 11:41:54;;;;;;;7.00;0.50;;;8.70;99.90;;;;;;4851217;23;20253;-80
2024/02/23 11:44:20;;;;;;;1.07;0.40;;;8.90;99.90;;;;;;4936252;29;20244;-78
2024/02/23 11:46:48;;;;;;;1.57;0.20;;;8.90;99.90;;;;;;4937848;29;20216;-79
2024/02/23 11:49:15;;;;;;;1.70;0.40;;;8.90;99.90;;;;;;4923992;29;20233;-80
2024/02/23 11:51:42;;;;;;;1.60;0.30;;;8.90;99.90;;;;;;4919312;29;20212;-77
2024/02/23 11:54:09;;;;;;;7.83;0.77;;;8.80;99.90;;;;;;4919083;29;20301;-77
2024/02/23 11:56:36;;;;;;;0.50;0.30;;;8.80;99.90;;;;;;4919695;29;20304;-79
2024/02/23 11:59:05;;;;;;;0.40;0.30;;;9.00;99.90;;;;;;4919396;29;20321;-79
2024/02/23 12:01:32;;;;;;;0.80;0.40;;;9.10;99.90;;;;;;4919183;29;20603;-79
2024/02/23 12:03:59;;;;;;;1.77;0.40;;;9.30;99.90;;;;;;4919024;29;20241;-79
2024/02/23 12:06:29;;;;;;;0.63;0.40;;;9.50;99.90;;;;;;4919262;29;20296;-80
2024/02/23 12:08:56;;;;;;;0.67;0.20;;;9.40;99.90;;;;;;4917795;29;20332;-79
2024/02/23 12:11:23;;;;;;;1.80;0.17;;;9.50;99.90;;;;;;4918722;29;20245;-79
2024/02/23 12:13:51;;;;;;;0.37;0.20;;;9.50;99.90;;;;;;4918493;29;20213;-78
2024/02/23 12:16:19;;;;;;;0.87;0.30;;;9.40;99.90;;;;;;4918849;29;20671;-79
2024/02/23 12:18:46;;;;;;;1.53;0.33;;;9.50;99.90;;;;;;4918823;29;20268;-79
2024/02/23 12:21:13;;;;;;;3.03;0.43;;;9.50;99.90;;;;;;4918648;29;20642;-79
2024/02/23 12:23:43;;;;;;;1.37;0.40;;;9.30;99.90;;;;;;4918174;29;20237;-79
2024/02/23 12:26:11;;;;;;;1.27;0.30;;;9.40;99.90;;;;;;4918518;29;20233;-79
2024/02/23 12:28:37;;;;;;;1.03;0.33;;;9.60;99.90;;;;;;4918108;29;20316;-79
2024/02/23 12:31:05;;;;;;;2.83;0.30;;;9.40;99.90;;;;;;4918606;29;20296;-79
2024/02/23 12:33:35;;;;;;;5.27;0.50;;;9.40;99.90;;;;;;4918639;29;20257;-78
2024/02/23 12:36:03;;;;;;;1.53;0.30;;;9.50;99.90;;;;;;4918842;29;20221;-78
2024/02/23 12:38:30;;;;;;;2.30;0.30;;;9.60;99.90;;;;;;4918388;29;20700;-77
2024/02/23 12:40:57;;;;;;;0.97;0.70;;;9.70;99.90;;;;;;4918416;29;20304;-79
2024/02/23 12:43:25;;;;;;;1.03;0.33;;;9.60;99.90;;;;;;4917993;29;20240;-78
2024/02/23 12:45:54;;;;;;;0.30;0.20;;;9.80;99.90;;;;;;4918361;29;20219;-78
2024/02/23 12:48:22;;;;;;;0.90;0.30;;;9.70;99.90;;;;;;4918283;29;20316;-78
2024/02/23 12:50:50;;;;;;;1.20;0.53;;;9.80;99.90;;;;;;4918183;29;20209;-78
2024/02/23 12:53:33;;;;;;;3.03;0.40;;;9.80;99.90;;;;;;4917505;29;20214;-78
2024/02/23 12:56:00;;;;;;;4.23;0.47;;;9.90;99.90;;;;;;4918005;29;20214;-78
2024/02/23 12:58:27;;;;;;;0.30;0.17;;;9.60;99.90;;;;;;4917594;29;20653;-79
2024/02/23 13:00:54;;;;;;;4.20;0.90;;;9.50;99.90;;;;;;4917931;29;20296;-78
2024/02/23 13:03:21;;;;;;;0.70;0.20;;;9.50;99.90;;;;;;4917849;29;20364;-81
2024/02/23 13:05:50;;;;;;;0.97;0.30;;;9.40;99.90;;;;;;4917798;29;20289;-77
2024/02/23 13:08:17;;;;;;;0.47;0.17;;;9.50;99.90;;;;;;4919953;29;20233;-78
2024/02/23 13:10:44;;;;;;;1.83;0.50;;;9.50;99.90;;;;;;4924214;29;20273;-78
2024/02/23 13:13:12;;;;;;;2.50;0.73;;;9.40;99.90;;;;;;4925973;29;20236;-77
2024/02/23 13:15:39;;;;;;;1.83;0.50;;;9.50;99.90;;;;;;4924774;29;20297;-79
2024/02/23 13:18:06;;;;;;;0.60;0.30;;;9.60;99.90;;;;;;4923819;29;20297;-78
2024/02/23 13:20:33;;;;;;;4.20;0.40;;;9.70;99.90;;;;;;4922784;29;20210;-79
2024/02/23 13:23:01;;;;;;;0.70;0.20;;;9.60;99.90;;;;;;4921679;29;20309;-78
2024/02/23 13:25:28;;;;;;;3.83;0.87;;;9.70;99.90;;;;;;4917647;29;20343;-78
2024/02/23 13:27:55;;;;;;;0.30;0.20;;;9.80;99.90;;;;;;4917506;29;20233;-78
2024/02/23 13:30:22;;;;;;;5.63;0.43;;;9.90;99.90;;;;;;4917503;29;20585;-78
2024/02/23 13:32:49;;;;;;;0.93;0.40;;;10.10;99.90;;;;;;4917307;29;20308;-79
2024/02/23 13:35:16;;;;;;;2.37;0.47;;;10.30;99.90;;;;;;4917389;29;20216;-79
2024/02/23 13:37:44;;;;;;;3.73;0.30;;;10.20;99.90;;;;;;4917123;29;20221;-77
2024/02/23 13:40:12;;;;;;;6.03;0.50;;;10.20;99.90;;;;;;4917014;29;20205;-77
2024/02/23 13:42:39;;;;;;;1.27;0.40;;;10.20;99.90;;;;;;4916864;29;20268;-78
2024/02/23 13:45:08;;;;;;;0.57;0.33;;;10.00;99.90;;;;;;4916946;29;20233;-79
2024/02/23 13:47:36;;;;;;;0.37;0.27;;;9.80;99.90;;;;;;4917116;29;20305;-78
2024/02/23 13:50:03;;;;;;;1.47;0.30;;;9.70;99.90;;;;;;4917099;29;20220;-79
2024/02/23 13:52:31;;;;;;;0.60;0.53;;;9.60;99.90;;;;;;4917494;29;20297;-81
2024/02/23 13:54:58;;;;;;;1.77;0.23;;;9.60;99.90;;;;;;4917440;29;20221;-81
2024/02/23 13:57:27;;;;;;;1.03;0.30;;;9.80;99.90;;;;;;4917488;29;20296;-80
2024/02/23 13:59:54;;;;;;;1.73;0.60;;;9.90;99.90;;;;;;4917389;29;20743;-78
2024/02/23 14:02:28;;;;;;;0.20;0.10;;;9.90;99.90;;;;;;4916656;29;20735;-78
2024/02/23 14:05:02;;;;;;;2.40;0.37;;;9.80;99.90;;;;;;4916881;29;20243;-78
2024/02/23 14:07:29;;;;;;;1.50;0.23;;;9.80;99.90;;;;;;4916805;29;20248;-78
2024/02/23 14:09:55;;;;;;;1.53;0.30;;;9.80;99.90;;;;;;4916756;29;20728;-79
2024/02/23 14:12:22;;;;;;;1.37;0.43;;;10.00;99.90;;;;;;4916402;29;20212;-78
2024/02/23 14:14:51;;;;;;;1.00;0.20;;;10.20;99.90;;;;;;4916852;29;20288;-79
2024/02/23 14:17:18;;;;;;;1.50;0.20;;;10.20;99.90;;;;;;4916862;29;20216;-79
2024/02/23 14:19:45;;;;;;;3.53;0.40;;;10.00;99.90;;;;;;4916705;29;20318;-79
2024/02/23 14:22:12;;;;;;;0.93;0.23;;;9.90;99.90;;;;;;4916362;29;20220;-79
2024/02/23 14:24:40;;;;;;;1.73;0.23;;;9.80;99.90;;;;;;4916541;29;20243;-79
2024/02/23 14:27:07;;;;;;;0.40;0.20;;;9.70;99.90;;;;;;4916451;29;20290;-78
2024/02/23 14:29:34;;;;;;;1.30;0.17;;;9.80;99.90;;;;;;4916427;29;20661;-78
2024/02/23 14:32:02;;;;;;;1.37;0.20;;;10.00;99.90;;;;;;4917601;29;20308;-79
2024/02/23 14:34:30;;;;;;;0.50;0.30;;;10.00;99.90;;;;;;4920648;29;20216;-80
2024/02/23 14:36:56;;;;;;;0.67;0.27;;;10.10;99.90;;;;;;4920903;29;20210;-79
2024/02/23 14:39:23;;;;;;;0.67;0.30;;;10.10;99.90;;;;;;4920754;29;20736;-79
2024/02/23 14:41:50;;;;;;;0.20;0.20;;;10.20;99.90;;;;;;4920297;29;20221;-79
2024/02/23 14:44:17;;;;;;;1.93;0.40;;;10.30;99.90;;;;;;4920093;29;20252;-78
2024/02/23 14:46:44;;;;;;;3.40;0.40;;;10.30;99.90;;;;;;4920049;29;20618;-79
2024/02/23 14:49:12;;;;;;;0.97;0.47;;;10.50;99.90;;;;;;4919991;29;20257;-79
2024/02/23 14:51:42;;;;;;;0.63;0.30;;;10.50;99.90;;;;;;4920338;29;20249;-79
2024/02/23 14:54:09;;;;;;;1.23;0.30;;;10.30;99.90;;;;;;4920303;29;20210;-79
2024/02/23 14:56:36;;;;;;;0.37;0.20;;;10.00;99.90;;;;;;4919994;29;20297;-79
2024/02/23 14:59:03;;;;;;;1.50;0.20;;;9.90;99.90;;;;;;4920007;29;20240;-79
2024/02/23 15:01:29;;;;;;;1.13;0.20;;;9.90;99.90;;;;;;4920264;29;20292;-79
2024/02/23 15:03:56;;;;;;;4.00;0.53;;;9.90;99.90;;;;;;4920111;29;20304;-78
2024/02/23 15:06:25;;;;;;;0.87;0.20;;;9.90;99.90;;;;;;4919906;29;20245;-78
2024/02/23 15:08:51;;;;;;;0.60;0.20;;;9.80;99.90;;;;;;4919800;29;20638;-78
2024/02/23 15:11:18;;;;;;;0.93;0.10;;;9.70;99.90;;;;;;4919735;29;20209;-79
2024/02/23 15:13:45;;;;;;;0.50;0.20;;;9.70;99.90;;;;;;4919791;29;20210;-79
2024/02/23 15:16:12;;;;;;;4.10;0.37;;;9.80;99.90;;;;;;4920080;29;20304;-80
2024/02/23 15:18:39;;;;;;;1.27;0.10;;;9.80;99.90;;;;;;4919799;29;20240;-78
2024/02/23 15:21:06;;;;;;;2.40;0.30;;;9.80;99.90;;;;;;4919788;29;20661;-79
2024/02/23 15:23:34;;;;;;;2.60;0.30;;;9.70;99.90;;;;;;4919625;29;20300;-79
2024/02/23 15:26:01;;;;;;;1.83;0.20;;;9.80;99.90;;;;;;4919802;29;20323;-78
2024/02/23 15:28:28;;;;;;;1.27;0.20;;;9.70;99.90;;;;;;4919694;29;20324;-78
2024/02/23 15:30:55;;;;;;;2.73;0.30;;;9.70;99.90;;;;;;4919774;29;20316;-79
2024/02/23 15:33:22;;;;;;;1.10;0.30;;;9.70;99.90;;;;;;4919268;29;20665;-79
2024/02/23 15:35:49;;;;;;;0.30;0.20;;;9.70;99.90;;;;;;4919203;29;20568;-79
2024/02/23 15:38:16;;;;;;;0.97;0.30;;;9.60;99.90;;;;;;4919234;29;20763;-79
2024/02/23 15:40:44;;;;;;;0.63;0.20;;;9.60;99.90;;;;;;4919563;29;20205;-78
2024/02/23 15:43:11;;;;;;;1.70;0.30;;;9.60;99.90;;;;;;4918208;29;20305;-79
2024/02/23 15:45:38;;;;;;;3.20;0.27;;;9.60;99.90;;;;;;4918526;29;20708;-79
2024/02/23 15:48:05;;;;;;;1.20;0.30;;;9.50;99.90;;;;;;4919084;29;20643;-79
2024/02/23 15:50:33;;;;;;;0.63;0.20;;;9.60;99.90;;;;;;4919159;29;20760;-80
2024/02/23 15:53:01;;;;;;;1.07;0.40;;;9.60;99.90;;;;;;4919247;29;20696;-79
2024/02/23 15:55:28;;;;;;;1.47;0.60;;;9.60;99.90;;;;;;4919288;29;20221;-80
2024/02/23 15:57:56;;;;;;;5.90;0.70;;;9.60;99.90;;;;;;4918531;29;20257;-79
2024/02/23 16:00:24;;;;;;;0.50;0.40;;;9.70;99.90;;;;;;4918806;29;20214;-79
2024/02/23 16:02:51;;;;;;;1.17;0.40;;;9.60;99.90;;;;;;4919092;29;20669;-79
2024/02/23 16:05:18;;;;;;;0.50;0.20;;;9.70;99.90;;;;;;4918995;29;20268;-78
2024/02/23 16:07:45;;;;;;;1.40;0.43;;;9.70;99.90;;;;;;4918931;29;20209;-78
2024/02/23 16:10:13;;;;;;;0.37;0.27;;;9.70;99.90;;;;;;4918716;29;20561;-79
2024/02/23 16:12:39;;;;;;;1.87;0.43;;;9.50;99.90;;;;;;4918683;29;20212;-79
2024/02/23 16:15:10;;;;;;;1.57;0.60;;;9.50;99.90;;;;;;4918767;29;20213;-79
2024/02/23 16:17:37;;;;;;;2.83;0.43;;;9.50;99.90;;;;;;4918697;29;20206;-79
2024/02/23 16:20:04;;;;;;;0.43;0.30;;;9.60;99.90;;;;;;4918736;29;20535;-79
2024/02/23 16:22:31;;;;;;;0.40;0.30;;;9.50;99.90;;;;;;4919371;29;20214;-81
2024/02/23 16:24:58;;;;;;;1.23;0.40;;;9.50;99.90;;;;;;4918417;29;20265;-79
2024/02/23 16:27:25;;;;;;;1.07;0.40;;;9.60;99.90;;;;;;4918337;29;20249;-77
2024/02/23 16:29:52;;;;;;;1.33;0.20;;;9.60;99.90;;;;;;4918393;29;20316;-78
2024/02/23 16:32:20;;;;;;;3.30;0.33;;;9.60;99.90;;;;;;4918356;29;20241;-80
2024/02/23 16:34:47;;;;;;;3.03;0.40;;;9.50;99.90;;;;;;4918992;29;20222;-79
2024/02/23 16:37:14;;;;;;;2.73;0.20;;;9.50;99.90;;;;;;4918651;29;20300;-79
2024/02/23 16:39:41;;;;;;;2.07;0.63;;;9.50;99.90;;;;;;4918248;29;20225;-79
2024/02/23 16:42:07;;;;;;;0.50;0.40;;;9.50;99.90;;;;;;4918207;29;20261;-79
2024/02/23 16:44:35;;;;;;;1.33;0.27;;;9.30;99.90;;;;;;4918168;29;20320;-78
2024/02/23 16:47:03;;;;;;;3.50;0.60;;;9.30;99.90;;;;;;4917929;29;20257;-77
2024/02/23 16:49:31;;;;;;;1.77;0.80;;;9.20;99.90;;;;;;4918051;29;20229;-76
2024/02/23 16:51:58;;;;;;;5.13;2.50;;;9.20;99.90;;;;;;4916698;29;20232;-79
2024/02/23 16:54:25;;;;;;;2.07;1.00;;;9.20;99.90;;;;;;4914066;29;20717;-81
2024/02/23 16:56:53;;;;;;;2.93;1.07;;;9.20;99.90;;;;;;4917932;29;20645;-82
2024/02/23 16:59:20;;;;;;;2.53;0.90;;;9.20;99.90;;;;;;4918570;29;20248;-83
2024/02/23 17:01:47;;;;;;;0.50;0.40;;;9.10;99.90;;;;;;4900828;29;20210;-84
2024/02/23 17:04:14;;;;;;;2.43;0.63;;;8.90;99.90;;;;;;4908969;29;20638;-83
2024/02/23 17:06:42;;;;;;;2.47;1.43;;;8.80;99.90;;;;;;4918353;29;20243;-81
2024/02/23 17:09:09;;;;;;;0.87;0.60;;;8.70;99.90;;;;;;4917564;29;20225;-82
2024/02/23 17:11:36;;;;;;;1.17;0.30;;;8.70;99.90;;;;;;4917874;29;20681;-82
2024/02/23 17:14:04;;;;;;;0.40;0.30;;;8.70;99.90;;;;;;4918201;29;20300;-83
2024/02/23 17:16:30;;;;;;;1.70;0.50;;;8.60;99.90;;;;;;4917894;29;20214;-86
2024/02/23 17:18:59;;;;;;;4.17;0.83;;;8.60;99.90;;;;;;4919763;29;20253;-87
2024/02/23 17:21:26;;;;;;;1.50;0.90;;;8.50;99.90;;;;;;4922031;29;20568;-86
2024/02/23 17:23:55;;;;;;;0.73;0.40;;;8.40;99.90;;;;;;4920947;29;20312;-86
2024/02/23 17:26:22;;;;;;;2.60;0.30;;;8.40;99.90;;;;;;4924565;29;20601;-87
2024/02/23 17:28:48;;;;;;;4.37;0.50;;;8.30;99.90;;;;;;4922746;29;20230;-83
2024/02/23 17:31:15;;;;;;;2.03;0.30;;;8.30;99.90;;;;;;4923347;29;20301;-84
2024/02/23 17:33:42;;;;;;;0.50;0.30;;;8.30;99.90;;;;;;4925870;29;20210;-83
2024/02/23 17:36:09;;;;;;;2.33;0.60;;;8.40;99.90;;;;;;4924252;29;20244;-82
2024/02/23 17:38:36;;;;;;;0.53;0.23;;;8.50;99.90;;;;;;4930899;29;20245;-85
2024/02/23 17:41:05;;;;;;;3.93;0.50;;;8.60;99.90;;;;;;4922071;29;20229;-83
2024/02/23 17:43:32;;;;;;;1.00;0.40;;;8.60;99.90;;;;;;4921514;29;20297;-88
2024/02/23 17:46:01;;;;;;;1.57;0.43;;;8.60;99.90;;;;;;4918977;29;20331;-86
2024/02/23 17:48:31;;;;;;;0.87;0.40;;;8.70;99.90;;;;;;4920872;29;20685;-81
2024/02/23 17:50:58;;;;;;;3.80;0.70;;;8.60;99.90;;;;;;4920595;29;20209;-81
2024/02/23 17:53:25;;;;;;;0.70;0.30;;;8.60;99.90;;;;;;4920105;29;20217;-81
2024/02/23 17:55:53;;;;;;;2.37;0.40;;;8.60;99.90;;;;;;4926160;29;20680;-85
2024/02/23 17:58:21;;;;;;;3.20;0.80;;;8.60;99.90;;;;;;4922899;29;20681;-84
2024/02/23 18:00:48;;;;;;;1.73;0.40;;;8.60;99.90;;;;;;4921684;29;20233;-86
2024/02/23 18:03:15;;;;;;;0.47;0.20;;;8.50;99.90;;;;;;4919605;29;20300;-85
2024/02/23 18:05:42;;;;;;;2.60;0.40;;;8.40;99.90;;;;;;4920296;29;20747;-85
2024/02/23 18:08:09;;;;;;;1.23;0.60;;;8.50;99.90;;;;;;4922251;29;20233;-83
2024/02/23 18:10:37;;;;;;;1.07;0.40;;;8.50;99.90;;;;;;4927951;29;20317;-86
2024/02/23 18:13:04;;;;;;;0.70;0.40;;;8.50;99.90;;;;;;4924185;29;20661;-84
2024/02/23 18:15:33;;;;;;;0.77;0.40;;;8.40;99.90;;;;;;4919567;29;20296;-84
2024/02/23 18:18:00;;;;;;;0.83;0.50;;;8.50;99.90;;;;;;4919420;29;20229;-87
2024/02/23 18:20:27;;;;;;;2.87;0.40;;;8.50;99.90;;;;;;4921603;29;20281;-84
2024/02/23 18:22:54;;;;;;;0.90;0.50;;;8.50;99.90;;;;;;4921274;29;20269;-82
2024/02/23 18:25:21;;;;;;;2.13;0.60;;;8.40;99.90;;;;;;4919755;29;20269;-83
2024/02/23 18:27:48;;;;;;;1.43;0.77;;;8.50;99.90;;;;;;4917535;29;20292;-80
2024/02/23 18:30:15;;;;;;;2.20;0.90;;;8.40;99.90;;;;;;4912293;29;20220;-82
2024/02/23 18:32:44;;;;;;;2.10;0.73;;;8.40;99.90;;;;;;4915248;29;20753;-81
2024/02/23 18:35:11;;;;;;;2.10;0.90;;;8.10;99.90;;;;;;4915721;29;20220;-81
2024/02/23 18:37:38;;;;;;;3.30;0.93;;;8.20;99.90;;;;;;4916402;29;20218;-82
2024/02/23 18:40:06;;;;;;;1.47;0.60;;;8.10;99.90;;;;;;4916524;29;20296;-81
2024/02/23 18:42:33;;;;;;;0.90;0.50;;;8.10;99.90;;;;;;4917844;29;20245;-82
2024/02/23 18:44:59;;;;;;;1.73;0.80;;;8.10;99.90;;;;;;4916130;29;20281;-82
2024/02/23 18:47:26;;;;;;;4.27;0.70;;;8.10;99.90;;;;;;4915785;29;20285;-82
2024/02/23 18:49:55;;;;;;;2.73;0.70;;;7.90;99.90;;;;;;4916218;29;20324;-81
2024/02/23 18:52:22;;;;;;;3.77;0.80;;;8.00;99.90;;;;;;4916523;29;20219;-82
2024/02/23 18:54:49;;;;;;;4.10;1.00;;;8.00;99.90;;;;;;4916586;29;20756;-82
2024/02/23 18:57:18;;;;;;;4.53;1.03;;;8.00;99.90;;;;;;4916478;29;20304;-82
2024/02/23 18:59:45;;;;;;;1.40;0.73;;;8.10;99.90;;;;;;4914405;29;20236;-82
2024/02/23 19:02:12;;;;;;;1.30;0.50;;;8.10;99.90;;;;;;4914089;29;20222;-82
2024/02/23 19:04:39;;;;;;;1.07;0.50;;;8.00;99.90;;;;;;4915487;29;20292;-81
2024/02/23 19:07:07;;;;;;;1.43;0.50;;;7.80;99.90;;;;;;4916224;29;20671;-81
2024/02/23 19:09:34;;;;;;;0.30;0.30;;;7.50;99.90;;;;;;4916222;29;20324;-81
2024/02/23 19:12:02;;;;;;;1.13;0.60;;;7.20;99.90;;;;;;4917204;29;20308;-83
2024/02/23 19:14:30;;;;;;;0.53;0.30;;;7.00;99.90;;;;;;4931325;29;20194;-82
2024/02/23 19:16:57;;;;;;;1.37;0.30;;;6.70;99.90;;;;;;4939357;29;20200;-83
2024/02/23 19:19:24;;;;;;;2.70;0.50;;;6.60;99.90;;;;;;4927394;29;20210;-82
2024/02/23 19:21:53;;;;;;;2.07;0.53;;;6.60;99.90;;;;;;4938967;29;20233;-82
2024/02/23 19:24:22;;;;;;;1.50;0.60;;;6.60;99.90;;;;;;4928607;29;20213;-84
2024/02/23 19:26:49;;;;;;;0.50;0.20;;;6.50;99.90;;;;;;4935418;29;20224;-85
2024/02/23 19:29:17;;;;;;;0.57;0.20;;;6.50;99.90;;;;;;4927869;29;20236;-83
2024/02/23 19:31:44;;;;;;;1.10;0.37;;;6.50;99.90;;;;;;4914227;29;20308;-85
2024/02/23 19:34:12;;;;;;;1.23;0.60;;;6.50;99.90;;;;;;4921382;29;20212;-85
2024/02/23 19:36:39;;;;;;;0.47;0.27;;;6.60;99.90;;;;;;4921466;29;20278;-86
2024/02/23 19:39:08;;;;;;;0.87;0.20;;;6.50;99.90;;;;;;4921192;29;20226;-85
2024/02/23 19:41:42;;;;;;;0.50;0.20;;;6.40;99.90;;;;;;4912859;29;20588;-85
2024/02/23 19:44:10;;;;;;;1.60;0.30;;;6.20;99.90;;;;;;4922512;29;20204;-85
2024/02/23 19:46:37;;;;;;;3.63;0.33;;;6.20;99.90;;;;;;4921991;29;20676;-88
2024/02/23 19:49:04;;;;;;;1.17;0.37;;;6.20;99.90;;;;;;4920494;29;20261;-84
2024/02/23 19:51:31;;;;;;;1.57;0.30;;;6.10;99.90;;;;;;4924936;29;20214;-83
2024/02/23 19:53:58;;;;;;;0.50;0.20;;;6.00;99.90;;;;;;4920364;29;20302;-82
2024/02/23 19:56:25;;;;;;;2.03;0.30;;;5.90;99.90;;;;;;4919527;29;20301;-82
2024/02/23 19:58:53;;;;;;;0.50;0.30;;;5.70;99.90;;;;;;4919361;29;20312;-81
2024/02/23 20:01:21;;;;;;;1.23;0.77;;;5.70;99.90;;;;;;4913740;29;20237;-83
2024/02/23 20:03:48;;;;;;;0.30;0.20;;;5.80;99.90;;;;;;4913262;29;20574;-83
2024/02/23 20:06:16;;;;;;;0.30;0.20;;;5.80;99.90;;;;;;4914033;29;20265;-83
2024/02/23 20:08:43;;;;;;;0.43;0.30;;;5.80;99.90;;;;;;4918662;29;20320;-83
2024/02/23 20:11:10;;;;;;;1.60;0.60;;;5.80;99.90;;;;;;4918922;29;20292;-84
2024/02/23 20:13:36;;;;;;;2.17;0.40;;;5.80;99.90;;;;;;4917689;29;20748;-84
2024/02/23 20:16:05;;;;;;;0.30;0.20;;;5.90;99.90;;;;;;4918629;29;20561;-84
2024/02/23 20:18:32;;;;;;;1.50;0.53;;;6.00;99.90;;;;;;4918548;29;20230;-84
2024/02/23 20:20:59;;;;;;;3.27;0.80;;;6.00;99.90;;;;;;4915018;29;20305;-80
2024/02/23 20:23:26;;;;;;;0.90;0.40;;;6.10;99.90;;;;;;4918541;29;20629;-82
2024/02/23 20:25:55;;;;;;;1.50;0.40;;;6.10;99.90;;;;;;4918559;29;20747;-83
2024/02/23 20:28:22;;;;;;;0.93;0.40;;;6.30;99.90;;;;;;4916779;29;20233;-82
2024/02/23 20:30:49;;;;;;;0.47;0.40;;;6.30;99.90;;;;;;4917024;29;20300;-82
2024/02/23 20:33:18;;;;;;;0.63;0.33;;;6.30;99.90;;;;;;4918549;29;20304;-82
2024/02/23 20:35:45;;;;;;;1.53;0.40;;;6.30;99.90;;;;;;4918489;29;20217;-81
2024/02/23 20:38:12;;;;;;;4.10;0.60;;;6.30;99.90;;;;;;4918275;29;20229;-82
2024/02/23 20:40:38;;;;;;;1.07;0.50;;;6.30;99.90;;;;;;4918262;29;20240;-82
2024/02/23 20:43:05;;;;;;;0.87;0.30;;;6.40;99.90;;;;;;4917822;29;20257;-82
2024/02/23 20:45:32;;;;;;;2.07;0.50;;;6.40;99.90;;;;;;4917828;29;20296;-83
2024/02/23 20:47:59;;;;;;;2.33;1.00;;;6.40;99.90;;;;;;4917594;29;20324;-82
2024/02/23 20:50:28;;;;;;;1.57;0.77;;;6.30;99.90;;;;;;4917320;29;20658;-82
2024/02/23 20:52:55;;;;;;;1.70;0.57;;;6.30;99.90;;;;;;4917616;29;20656;-82
2024/02/23 20:55:22;;;;;;;1.57;0.70;;;6.10;99.90;;;;;;4917734;29;20300;-82
2024/02/23 20:57:50;;;;;;;1.43;0.53;;;6.20;99.90;;;;;;4917427;29;20329;-82
2024/02/23 21:00:17;;;;;;;3.27;0.90;;;6.10;99.90;;;;;;4917125;29;20210;-82
2024/02/23 21:02:44;;;;;;;2.13;0.90;;;6.00;99.90;;;;;;4917386;29;20308;-82
2024/02/23 21:05:11;;;;;;;3.67;0.70;;;5.90;99.90;;;;;;4918419;29;20220;-81
2024/02/23 21:07:39;;;;;;;3.57;0.80;;;5.80;99.90;;;;;;4918673;29;20333;-80
2024/02/23 21:10:08;;;;;;;2.43;1.33;;;5.90;99.90;;;;;;4905193;29;20310;-82
2024/02/23 21:12:35;;;;;;;2.00;0.73;;;5.90;99.90;;;;;;4917283;29;20209;-82
2024/02/23 21:15:02;;;;;;;0.90;0.60;;;5.90;99.90;;;;;;4917562;29;20292;-83
2024/02/23 21:17:29;;;;;;;1.37;0.53;;;5.90;99.90;;;;;;4916833;29;20217;-83
2024/02/23 21:19:55;;;;;;;2.60;0.77;;;5.90;99.90;;;;;;4917505;29;20304;-82
2024/02/23 21:22:22;;;;;;;1.10;0.50;;;5.90;99.90;;;;;;4917401;29;20244;-83
2024/02/23 21:24:51;;;;;;;2.07;0.80;;;5.80;99.90;;;;;;4917350;29;20280;-83
2024/02/23 21:27:17;;;;;;;3.63;0.90;;;5.90;99.90;;;;;;4916969;29;20329;-82
2024/02/23 21:29:44;;;;;;;1.77;0.70;;;5.80;99.90;;;;;;4917356;29;20231;-83
2024/02/23 21:32:11;;;;;;;2.20;0.70;;;5.80;99.90;;;;;;4917108;29;20304;-82
2024/02/23 21:34:38;;;;;;;1.33;0.43;;;5.80;99.90;;;;;;4917328;29;20720;-82
2024/02/23 21:37:06;;;;;;;2.07;0.60;;;5.80;99.90;;;;;;4917119;29;20299;-82
2024/02/23 21:39:33;;;;;;;1.20;0.47;;;5.80;99.90;;;;;;4917016;29;20229;-83
2024/02/23 21:42:02;;;;;;;3.77;0.60;;;5.70;99.90;;;;;;4916788;29;20308;-83
2024/02/23 21:44:28;;;;;;;0.83;0.47;;;5.80;99.90;;;;;;4917695;29;20302;-83
2024/02/23 21:46:55;;;;;;;1.30;0.73;;;5.70;99.90;;;;;;4917058;29;20245;-84
2024/02/23 21:49:22;;;;;;;2.40;0.87;;;5.50;99.90;;;;;;4916675;29;20755;-83
2024/02/23 21:51:49;;;;;;;1.60;0.60;;;5.50;99.90;;;;;;4916348;29;20296;-83
2024/02/23 21:54:17;;;;;;;1.20;0.60;;;5.70;99.90;;;;;;4916503;29;20303;-83
2024/02/23 21:56:44;;;;;;;1.10;0.60;;;5.80;99.90;;;;;;4916388;29;20205;-83
2024/02/23 21:59:13;;;;;;;0.90;0.60;;;5.70;99.90;;;;;;4916553;29;20586;-84
2024/02/23 22:01:40;;;;;;;1.97;0.60;;;5.80;99.90;;;;;;4916212;29;20256;-83
2024/02/23 22:04:07;;;;;;;1.23;0.40;;;5.80;99.90;;;;;;4916499;29;20210;-83
2024/02/23 22:06:34;;;;;;;2.07;0.87;;;5.80;99.90;;;;;;4916406;29;20697;-83
2024/02/23 22:09:02;;;;;;;2.67;0.93;;;5.80;99.90;;;;;;4916306;29;20591;-84
2024/02/23 22:11:29;;;;;;;3.97;1.20;;;5.90;99.90;;;;;;4916495;29;20214;-84
2024/02/23 22:13:55;;;;;;;3.23;0.90;;;6.00;99.90;;;;;;4916546;29;20296;-83
2024/02/23 22:16:24;;;;;;;1.77;0.63;;;6.00;99.90;;;;;;4916431;29;20292;-84
2024/02/23 22:18:51;;;;;;;2.53;0.50;;;5.90;99.90;;;;;;4916305;29;20457;-84
2024/02/23 22:21:20;;;;;;;1.53;0.90;;;5.90;99.90;;;;;;4916503;29;20229;-84
2024/02/23 22:23:47;;;;;;;2.60;0.70;;;5.90;99.90;;;;;;4916797;29;20673;-83
2024/02/23 22:26:14;;;;;;;0.40;0.30;;;5.90;99.90;;;;;;4916583;29;20210;-84
2024/02/23 22:28:43;;;;;;;0.83;0.40;;;6.00;99.90;;;;;;4916722;29;20257;-84
